Time;durP1;ratioP1;P1;durP2;ratioP2;P2;SDS_P1;SDS_P2;PMS_P1;PMS_P2;Temp;Humidity;BMP_temperature;BMP_pressure;BME280_temperature;BME280_humidity;BME280_pressure;Samples;Min_cycle;Max_cycle;Signal;HPM_P1;HPM_P2
2023/04/16 00:02:02;;;;;;;;;;;;;;;;;;5094863;28;1993;-42
2023/04/16 00:04:29;;;;;;;;;;;;;;;;;;5112643;28;1316;-50
2023/04/16 00:06:57;;;;;;;;;;;;;;;;;;5112149;28;1902;-44
2023/04/16 00:09:24;;;;;;;;;;;;;;;;;;5112615;28;1789;-40
2023/04/16 00:11:52;;;;;;;;;;;;;;;;;;5111315;28;2139;-40
2023/04/16 00:14:19;;;;;;;;;;;;;;;;;;5112519;28;1700;-42
2023/04/16 00:16:47;;;;;;;;;;;;;;;;;;5112927;28;2010;-39
2023/04/16 00:19:14;;;;;;;;;;;;;;;;;;5112381;28;1925;-39
2023/04/16 00:21:41;;;;;;;;;;;;;;;;;;5112481;28;1792;-40
2023/04/16 00:24:08;;;;;;;;;;;;;;;;;;5112507;28;1850;-40
2023/04/16 00:26:35;;;;;;;;;;;;;;;;;;5112540;28;1906;-45
2023/04/16 00:29:02;;;;;;;;;;;;;;;;;;5112643;28;1964;-43
2023/04/16 00:31:31;;;;;;;;;;;;;;;;;;5112165;28;1844;-57
2023/04/16 00:33:58;;;;;;;;;;;;;;;;;;5112124;28;2075;-48
2023/04/16 00:36:26;;;;;;;;;;;;;;;;;;5127453;27;1695;-49
2023/04/16 00:38:56;;;;;;;;;;;;;;;;;;5132704;27;2036;-47
2023/04/16 00:41:23;;;;;;;;;;;;;;;;;;5132592;27;1742;-43
2023/04/16 00:43:51;;;;;;;;;;;;;;;;;;5132574;27;2081;-42
2023/04/16 00:46:20;;;;;;;;;;;;;;;;;;5132651;27;1926;-43
2023/04/16 00:48:47;;;;;;;;;;;;;;;;;;5111760;28;1664;-43
2023/04/16 00:51:15;;;;;;;;;;;;;;;;;;5111851;28;1871;-43
2023/04/16 00:53:43;;;;;;;;;;;;;;;;;;5093506;28;2003;-52
2023/04/16 00:56:12;;;;;;;;;;;;;;;;;;5111838;28;2017;-47
2023/04/16 00:58:39;;;;;;;;;;;;;;;;;;5112033;28;2225;-45
2023/04/16 01:01:06;;;;;;;;;;;;;;;;;;5093492;28;2325;-48
2023/04/16 01:03:37;;;;;;;;;;;;;;;;;;5111856;28;2081;-43
2023/04/16 01:06:05;;;;;;;;;;;;;;;;;;5111773;28;1995;-52
2023/04/16 01:08:32;;;;;;;;;;;;;;;;;;5093227;28;2050;-51
2023/04/16 01:11:00;;;;;;;;;;;;;;;;;;5111732;28;1061;-44
2023/04/16 01:13:27;;;;;;;;;;;;;;;;;;5111452;28;2297;-44
2023/04/16 01:15:55;;;;;;;;;;;;;;;;;;5110381;28;1738;-43
2023/04/16 01:18:22;;;;;;;;;;;;;;;;;;5116832;28;1723;-46
2023/04/16 01:20:50;;;;;;;;;;;;;;;;;;5118416;28;2168;-49
2023/04/16 01:23:17;;;;;;;;;;;;;;;;;;5118424;28;1266;-43
2023/04/16 01:25:45;;;;;;;;;;;;;;;;;;5133327;27;1980;-46
2023/04/16 01:28:12;;;;;;;;;;;;;;;;;;5118383;28;2165;-50
2023/04/16 01:30:40;;;;;;;;;;;;;;;;;;5118440;28;2099;-49
2023/04/16 01:33:33;;;;;;;;;;;;;;;;;;5100600;28;1416;-51
2023/04/16 01:36:01;;;;;;;;;;;;;;;;;;5099914;28;2270;-44
2023/04/16 01:38:28;;;;;;;;;;;;;;;;;;5118211;28;1964;-45
2023/04/16 01:40:56;;;;;;;;;;;;;;;;;;5118251;28;1859;-46
2023/04/16 01:43:24;;;;;;;;;;;;;;;;;;5099913;28;2187;-45
2023/04/16 01:45:52;;;;;;;;;;;;;;;;;;5118088;28;1933;-43
2023/04/16 01:48:20;;;;;;;;;;;;;;;;;;5134696;27;1861;-51
2023/04/16 01:50:47;;;;;;;;;;;;;;;;;;5120321;27;2020;-46
2023/04/16 01:53:14;;;;;;;;;;;;;;;;;;5138544;27;1663;-47
2023/04/16 01:55:43;;;;;;;;;;;;;;;;;;5138928;27;2000;-45
2023/04/16 01:58:12;;;;;;;;;;;;;;;;;;5120547;27;1502;-43
2023/04/16 02:00:39;;;;;;;;;;;;;;;;;;5120259;27;1911;-48
2023/04/16 02:03:07;;;;;;;;;;;;;;;;;;5138722;27;1854;-59
2023/04/16 02:05:34;;;;;;;;;;;;;;;;;;5138416;27;1982;-43
2023/04/16 02:08:01;;;;;;;;;;;;;;;;;;5138619;27;2037;-48
2023/04/16 02:10:29;;;;;;;;;;;;;;;;;;5138489;27;1954;-43
2023/04/16 02:12:56;;;;;;;;;;;;;;;;;;5120016;27;2245;-51
2023/04/16 02:15:24;;;;;;;;;;;;;;;;;;5120117;27;1911;-47
2023/04/16 02:17:55;;;;;;;;;;;;;;;;;;5119975;27;1805;-43
2023/04/16 02:20:24;;;;;;;;;;;;;;;;;;5138362;27;1687;-48
2023/04/16 02:22:57;;;;;;;;;;;;;;;;;;5119883;27;1566;-46
2023/04/16 02:25:25;;;;;;;;;;;;;;;;;;5119739;27;1959;-43
2023/04/16 02:27:54;;;;;;;;;;;;;;;;;;5119719;27;1586;-48
2023/04/16 02:30:30;;;;;;;;;;;;;;;;;;5116614;27;1649;-43
2023/04/16 02:32:58;;;;;;;;;;;;;;;;;;5116483;27;2123;-43
2023/04/16 02:35:25;;;;;;;;;;;;;;;;;;5116379;27;1816;-49
2023/04/16 02:37:52;;;;;;;;;;;;;;;;;;5116578;27;2186;-43
2023/04/16 02:40:20;;;;;;;;;;;;;;;;;;5134896;27;1791;-44
2023/04/16 02:42:48;;;;;;;;;;;;;;;;;;5134859;27;1966;-43
2023/04/16 02:45:15;;;;;;;;;;;;;;;;;;5116554;27;1948;-43
2023/04/16 02:47:42;;;;;;;;;;;;;;;;;;5128966;27;2064;-46
2023/04/16 02:50:10;;;;;;;;;;;;;;;;;;5095846;28;1753;-44
2023/04/16 02:52:37;;;;;;;;;;;;;;;;;;5096382;28;1828;-44
2023/04/16 02:55:05;;;;;;;;;;;;;;;;;;5114049;28;2196;-44
2023/04/16 02:57:33;;;;;;;;;;;;;;;;;;5095827;28;2057;-52
2023/04/16 03:00:00;;;;;;;;;;;;;;;;;;5095521;28;2375;-42
2023/04/16 03:02:27;;;;;;;;;;;;;;;;;;5095745;28;2043;-51
2023/04/16 03:04:55;;;;;;;;;;;;;;;;;;5095658;28;1587;-43
2023/04/16 03:07:22;;;;;;;;;;;;;;;;;;5124831;27;1905;-44
2023/04/16 03:09:49;;;;;;;;;;;;;;;;;;5115962;27;1857;-45
2023/04/16 03:12:17;;;;;;;;;;;;;;;;;;5134247;27;2128;-43
2023/04/16 03:14:44;;;;;;;;;;;;;;;;;;5134643;27;1771;-43
2023/04/16 03:17:11;;;;;;;;;;;;;;;;;;5134344;27;2147;-50
2023/04/16 03:19:39;;;;;;;;;;;;;;;;;;5134153;27;1930;-43
2023/04/16 03:22:06;;;;;;;;;;;;;;;;;;5134110;27;1388;-42
2023/04/16 03:24:33;;;;;;;;;;;;;;;;;;5115796;27;2382;-43
2023/04/16 03:27:01;;;;;;;;;;;;;;;;;;5132954;27;2007;-48
2023/04/16 03:29:28;;;;;;;;;;;;;;;;;;5134133;27;1563;-42
2023/04/16 03:31:57;;;;;;;;;;;;;;;;;;5115555;27;2067;-43
2023/04/16 03:34:28;;;;;;;;;;;;;;;;;;5115582;27;1936;-43
2023/04/16 03:36:55;;;;;;;;;;;;;;;;;;5115309;27;1978;-48
2023/04/16 03:39:22;;;;;;;;;;;;;;;;;;5132523;27;1511;-44
2023/04/16 03:41:50;;;;;;;;;;;;;;;;;;5133415;27;1497;-43
2023/04/16 03:44:17;;;;;;;;;;;;;;;;;;5115313;27;1917;-50
2023/04/16 03:46:44;;;;;;;;;;;;;;;;;;5115085;27;1995;-45
2023/04/16 03:49:12;;;;;;;;;;;;;;;;;;5115179;27;1510;-52
2023/04/16 03:51:40;;;;;;;;;;;;;;;;;;5133345;27;1674;-45
2023/04/16 03:54:07;;;;;;;;;;;;;;;;;;5133394;27;1670;-43
2023/04/16 03:56:36;;;;;;;;;;;;;;;;;;5114908;27;1663;-43
2023/04/16 03:59:03;;;;;;;;;;;;;;;;;;5115060;27;2091;-44
2023/04/16 04:01:31;;;;;;;;;;;;;;;;;;5114969;27;2144;-43
2023/04/16 04:03:59;;;;;;;;;;;;;;;;;;5115004;27;1977;-42
2023/04/16 04:06:26;;;;;;;;;;;;;;;;;;5133216;27;1907;-41
2023/04/16 04:08:53;;;;;;;;;;;;;;;;;;5133022;27;1664;-41
2023/04/16 04:11:21;;;;;;;;;;;;;;;;;;5114962;27;2000;-40
2023/04/16 04:13:50;;;;;;;;;;;;;;;;;;5114997;27;1414;-46
2023/04/16 04:16:17;;;;;;;;;;;;;;;;;;5114572;27;1821;-46
2023/04/16 04:18:44;;;;;;;;;;;;;;;;;;5114766;27;2075;-40
2023/04/16 04:21:12;;;;;;;;;;;;;;;;;;5114389;27;1696;-41
2023/04/16 04:23:40;;;;;;;;;;;;;;;;;;5120909;27;1619;-44
2023/04/16 04:26:07;;;;;;;;;;;;;;;;;;5094020;28;1977;-40
2023/04/16 04:28:34;;;;;;;;;;;;;;;;;;5093946;28;1775;-41
2023/04/16 04:31:03;;;;;;;;;;;;;;;;;;5094071;28;1895;-40
2023/04/16 04:33:30;;;;;;;;;;;;;;;;;;5093799;28;2352;-63
2023/04/16 04:35:58;;;;;;;;;;;;;;;;;;5094104;28;1969;-42
2023/04/16 04:38:26;;;;;;;;;;;;;;;;;;5093844;28;1349;-44
2023/04/16 04:40:53;;;;;;;;;;;;;;;;;;5093849;28;2074;-40
2023/04/16 04:43:22;;;;;;;;;;;;;;;;;;5093822;28;1626;-42
2023/04/16 04:45:50;;;;;;;;;;;;;;;;;;5112203;28;1924;-53
2023/04/16 04:48:17;;;;;;;;;;;;;;;;;;5089974;28;1931;-41
2023/04/16 04:50:45;;;;;;;;;;;;;;;;;;5107130;28;1991;-44
2023/04/16 04:53:13;;;;;;;;;;;;;;;;;;5089494;28;2353;-44
2023/04/16 04:55:41;;;;;;;;;;;;;;;;;;5090085;28;1779;-40
2023/04/16 04:58:08;;;;;;;;;;;;;;;;;;5091379;28;1844;-39
2023/04/16 05:00:37;;;;;;;;;;;;;;;;;;5089976;28;2132;-41
2023/04/16 05:03:05;;;;;;;;;;;;;;;;;;5090189;28;1862;-41
2023/04/16 05:05:33;;;;;;;;;;;;;;;;;;5091481;28;2565;-41
2023/04/16 05:08:00;;;;;;;;;;;;;;;;;;5091200;28;2130;-41
2023/04/16 05:10:29;;;;;;;;;;;;;;;;;;5091195;28;1830;-44
2023/04/16 05:12:56;;;;;;;;;;;;;;;;;;5091441;28;1837;-41
2023/04/16 05:15:23;;;;;;;;;;;;;;;;;;5091306;28;1949;-41
2023/04/16 05:17:50;;;;;;;;;;;;;;;;;;5091412;28;1524;-44
2023/04/16 05:20:17;;;;;;;;;;;;;;;;;;5091216;28;1801;-41
2023/04/16 05:22:44;;;;;;;;;;;;;;;;;;5091294;28;2255;-41
2023/04/16 05:25:11;;;;;;;;;;;;;;;;;;5091280;28;2342;-41
2023/04/16 05:27:39;;;;;;;;;;;;;;;;;;5090902;28;1981;-40
2023/04/16 05:30:06;;;;;;;;;;;;;;;;;;5090866;28;2127;-41
2023/04/16 05:32:33;;;;;;;;;;;;;;;;;;5090891;28;1735;-49
2023/04/16 05:35:01;;;;;;;;;;;;;;;;;;5090999;28;2018;-42
2023/04/16 05:37:28;;;;;;;;;;;;;;;;;;5091077;28;1921;-43
2023/04/16 05:39:55;;;;;;;;;;;;;;;;;;5091078;28;2025;-52
2023/04/16 05:42:22;;;;;;;;;;;;;;;;;;5090950;28;2038;-40
2023/04/16 05:44:50;;;;;;;;;;;;;;;;;;5090813;28;2193;-41
2023/04/16 05:47:17;;;;;;;;;;;;;;;;;;5104350;28;1967;-48
2023/04/16 05:49:44;;;;;;;;;;;;;;;;;;5111225;28;1859;-40
2023/04/16 05:52:11;;;;;;;;;;;;;;;;;;5111288;28;2046;-40
2023/04/16 05:54:38;;;;;;;;;;;;;;;;;;5091596;28;1977;-45
2023/04/16 05:57:05;;;;;;;;;;;;;;;;;;5111016;28;1743;-42
2023/04/16 05:59:33;;;;;;;;;;;;;;;;;;5111321;28;1956;-41
2023/04/16 06:02:00;;;;;;;;;;;;;;;;;;5110733;28;1755;-41
2023/04/16 06:04:28;;;;;;;;;;;;;;;;;;5114251;28;2023;-41
2023/04/16 06:06:55;;;;;;;;;;;;;;;;;;5114945;28;1971;-41
2023/04/16 06:09:23;;;;;;;;;;;;;;;;;;5114658;28;1979;-43
2023/04/16 06:11:50;;;;;;;;;;;;;;;;;;5114784;28;1818;-40
2023/04/16 06:14:18;;;;;;;;;;;;;;;;;;5114776;28;1962;-42
2023/04/16 06:16:45;;;;;;;;;;;;;;;;;;5114753;28;2028;-41
2023/04/16 06:19:12;;;;;;;;;;;;;;;;;;5114655;28;1536;-41
2023/04/16 06:21:39;;;;;;;;;;;;;;;;;;5114694;28;1790;-41
2023/04/16 06:24:06;;;;;;;;;;;;;;;;;;5114473;28;2140;-42
2023/04/16 06:26:33;;;;;;;;;;;;;;;;;;5114503;28;1909;-42
2023/04/16 06:29:01;;;;;;;;;;;;;;;;;;5114328;28;1618;-41
2023/04/16 06:31:28;;;;;;;;;;;;;;;;;;5114991;28;2054;-41
2023/04/16 06:33:55;;;;;;;;;;;;;;;;;;5114667;28;2000;-44
2023/04/16 06:36:23;;;;;;;;;;;;;;;;;;5114419;28;2009;-42
2023/04/16 06:38:50;;;;;;;;;;;;;;;;;;5114267;28;1580;-45
2023/04/16 06:41:17;;;;;;;;;;;;;;;;;;5114253;28;1816;-43
2023/04/16 06:43:44;;;;;;;;;;;;;;;;;;5114366;28;1834;-40
2023/04/16 06:46:12;;;;;;;;;;;;;;;;;;5113922;28;1844;-49
2023/04/16 06:48:39;;;;;;;;;;;;;;;;;;5113706;28;1925;-45
2023/04/16 06:51:06;;;;;;;;;;;;;;;;;;5113892;28;1870;-49
2023/04/16 06:53:33;;;;;;;;;;;;;;;;;;5114001;28;1953;-41
2023/04/16 06:56:00;;;;;;;;;;;;;;;;;;5114035;28;1818;-43
2023/04/16 06:58:28;;;;;;;;;;;;;;;;;;5114207;28;1765;-41
2023/04/16 07:00:55;;;;;;;;;;;;;;;;;;5113650;28;1954;-41
2023/04/16 07:03:22;;;;;;;;;;;;;;;;;;5113623;28;2065;-41
2023/04/16 07:05:49;;;;;;;;;;;;;;;;;;5113666;28;1488;-44
2023/04/16 07:08:16;;;;;;;;;;;;;;;;;;5113450;28;1968;-42
2023/04/16 07:10:44;;;;;;;;;;;;;;;;;;5113735;28;2089;-40
2023/04/16 07:13:12;;;;;;;;;;;;;;;;;;5113406;28;2157;-48
2023/04/16 07:15:39;;;;;;;;;;;;;;;;;;5094816;28;1884;-41
2023/04/16 07:18:06;;;;;;;;;;;;;;;;;;5113353;28;1959;-47
2023/04/16 07:20:35;;;;;;;;;;;;;;;;;;5113571;28;1768;-52
2023/04/16 07:23:02;;;;;;;;;;;;;;;;;;5113711;28;2079;-41
2023/04/16 07:25:29;;;;;;;;;;;;;;;;;;5113508;28;2175;-40
2023/04/16 07:27:56;;;;;;;;;;;;;;;;;;5113313;28;1972;-41
2023/04/16 07:30:24;;;;;;;;;;;;;;;;;;5113156;28;2036;-40
2023/04/16 07:32:54;;;;;;;;;;;;;;;;;;5112983;28;1739;-41
2023/04/16 07:35:21;;;;;;;;;;;;;;;;;;5113203;28;1727;-56
2023/04/16 07:37:48;;;;;;;;;;;;;;;;;;5113456;28;2188;-41
2023/04/16 07:40:15;;;;;;;;;;;;;;;;;;5113274;28;1986;-41
2023/04/16 07:42:43;;;;;;;;;;;;;;;;;;5112917;28;2013;-42
2023/04/16 07:45:11;;;;;;;;;;;;;;;;;;5113041;28;2080;-46
2023/04/16 07:47:38;;;;;;;;;;;;;;;;;;5123688;27;2125;-41
2023/04/16 07:50:06;;;;;;;;;;;;;;;;;;5133238;27;2112;-42
2023/04/16 07:52:33;;;;;;;;;;;;;;;;;;5133532;27;1671;-45
2023/04/16 07:55:00;;;;;;;;;;;;;;;;;;5133476;27;1786;-43
2023/04/16 07:57:27;;;;;;;;;;;;;;;;;;5114727;27;2507;-41
2023/04/16 07:59:54;;;;;;;;;;;;;;;;;;5133213;27;2012;-48
2023/04/16 08:02:21;;;;;;;;;;;;;;;;;;5133154;27;2147;-41
2023/04/16 08:04:49;;;;;;;;;;;;;;;;;;5113406;27;1603;-47
2023/04/16 08:07:16;;;;;;;;;;;;;;;;;;5112464;28;1902;-39
2023/04/16 08:09:50;;;;;;;;;;;;;;;;;;5112335;28;1665;-45
2023/04/16 08:12:17;;;;;;;;;;;;;;;;;;5112509;28;1597;-58
2023/04/16 08:14:45;;;;;;;;;;;;;;;;;;5112408;28;2249;-41
2023/04/16 08:17:12;;;;;;;;;;;;;;;;;;5112382;28;1834;-44
2023/04/16 08:19:39;;;;;;;;;;;;;;;;;;5112625;28;1607;-52
2023/04/16 08:22:07;;;;;;;;;;;;;;;;;;5112482;28;2111;-41
2023/04/16 08:24:34;;;;;;;;;;;;;;;;;;5094318;28;2407;-48
2023/04/16 08:27:01;;;;;;;;;;;;;;;;;;5111894;28;1977;-59
2023/04/16 08:29:43;;;;;;;;;;;;;;;;;;5112098;28;1394;-57
2023/04/16 08:32:12;;;;;;;;;;;;;;;;;;5111958;28;1905;-61
2023/04/16 08:34:40;;;;;;;;;;;;;;;;;;5112382;28;2234;-54
2023/04/16 08:37:08;;;;;;;;;;;;;;;;;;5112254;28;2215;-53
2023/04/16 08:39:36;;;;;;;;;;;;;;;;;;5112103;28;1958;-40
2023/04/16 08:42:04;;;;;;;;;;;;;;;;;;5112442;28;1865;-50
2023/04/16 08:44:33;;;;;;;;;;;;;;;;;;5111918;28;1839;-53
2023/04/16 08:47:00;;;;;;;;;;;;;;;;;;5117295;27;1918;-57
2023/04/16 08:49:29;;;;;;;;;;;;;;;;;;5132176;27;1954;-43
2023/04/16 08:51:56;;;;;;;;;;;;;;;;;;5132357;27;1555;-50
2023/04/16 08:54:25;;;;;;;;;;;;;;;;;;5132316;27;2096;-58
2023/04/16 08:56:53;;;;;;;;;;;;;;;;;;5132418;27;2050;-41
2023/04/16 08:59:20;;;;;;;;;;;;;;;;;;5132340;27;1958;-53
2023/04/16 09:01:48;;;;;;;;;;;;;;;;;;5132058;27;2108;-49
2023/04/16 09:04:15;;;;;;;;;;;;;;;;;;5132225;27;1630;-39
2023/04/16 09:06:43;;;;;;;;;;;;;;;;;;5131937;27;1900;-45
2023/04/16 09:09:11;;;;;;;;;;;;;;;;;;5132180;27;1971;-40
2023/04/16 09:11:38;;;;;;;;;;;;;;;;;;5113796;27;2297;-62
2023/04/16 09:14:09;;;;;;;;;;;;;;;;;;5132082;27;2133;-40
2023/04/16 09:16:36;;;;;;;;;;;;;;;;;;5132298;27;1823;-61
2023/04/16 09:19:03;;;;;;;;;;;;;;;;;;5131942;28;2093;-40
2023/04/16 09:21:31;;;;;;;;;;;;;;;;;;5131943;28;1963;-40
2023/04/16 09:23:58;;;;;;;;;;;;;;;;;;5131958;28;1765;-41
2023/04/16 09:26:26;;;;;;;;;;;;;;;;;;5132021;28;1821;-41
2023/04/16 09:28:53;;;;;;;;;;;;;;;;;;5124182;28;1909;-40
2023/04/16 09:31:21;;;;;;;;;;;;;;;;;;5111286;28;2003;-39
2023/04/16 09:34:01;;;;;;;;;;;;;;;;;;5111206;28;1442;-40
2023/04/16 09:36:30;;;;;;;;;;;;;;;;;;5111316;28;2193;-42
2023/04/16 09:38:57;;;;;;;;;;;;;;;;;;5113227;28;1915;-40
2023/04/16 09:41:28;;;;;;;;;;;;;;;;;;5115498;28;1891;-40
2023/04/16 09:43:57;;;;;;;;;;;;;;;;;;5115443;28;1918;-41
2023/04/16 09:46:31;;;;;;;;;;;;;;;;;;5115317;28;1815;-39
2023/04/16 09:49:03;;;;;;;;;;;;;;;;;;5115074;28;2005;-40
2023/04/16 09:51:35;;;;;;;;;;;;;;;;;;5114995;28;2072;-40
2023/04/16 09:54:04;;;;;;;;;;;;;;;;;;5115192;28;2226;-39
2023/04/16 09:56:31;;;;;;;;;;;;;;;;;;5114878;28;1702;-39
2023/04/16 09:58:59;;;;;;;;;;;;;;;;;;5115323;28;1950;-39
2023/04/16 10:01:26;;;;;;;;;;;;;;;;;;5115177;28;1943;-40
2023/04/16 10:03:56;;;;;;;;;;;;;;;;;;5115144;28;1844;-41
2023/04/16 10:06:26;;;;;;;;;;;;;;;;;;5115239;28;2140;-39
2023/04/16 10:08:57;;;;;;;;;;;;;;;;;;5115014;28;2152;-47
2023/04/16 10:11:24;;;;;;;;;;;;;;;;;;5114699;28;2141;-39
2023/04/16 10:13:52;;;;;;;;;;;;;;;;;;5115007;28;1834;-38
2023/04/16 10:16:21;;;;;;;;;;;;;;;;;;5114746;28;1858;-40
2023/04/16 10:18:48;;;;;;;;;;;;;;;;;;5114700;28;1779;-39
2023/04/16 10:21:15;;;;;;;;;;;;;;;;;;5114832;28;1839;-39
2023/04/16 10:23:42;;;;;;;;;;;;;;;;;;5114698;28;2022;-38
2023/04/16 10:26:10;;;;;;;;;;;;;;;;;;5115135;28;1808;-39
2023/04/16 10:28:37;;;;;;;;;;;;;;;;;;5114721;28;1973;-48
2023/04/16 10:31:06;;;;;;;;;;;;;;;;;;5114697;28;1866;-39
2023/04/16 10:33:35;;;;;;;;;;;;;;;;;;5114608;28;1480;-39
2023/04/16 10:36:12;;;;;;;;;;;;;;;;;;5114371;28;2110;-39
2023/04/16 10:38:44;;;;;;;;;;;;;;;;;;5114531;28;1472;-39
2023/04/16 10:41:12;;;;;;;;;;;;;;;;;;5114449;28;2087;-52
2023/04/16 10:43:43;;;;;;;;;;;;;;;;;;5114445;28;2139;-42
2023/04/16 10:46:23;;;;;;;;;;;;;;;;;;5114139;28;2159;-42
2023/04/16 10:48:54;;;;;;;;;;;;;;;;;;5113900;28;1923;-40
2023/04/16 10:51:24;;;;;;;;;;;;;;;;;;5112644;28;1880;-41
2023/04/16 10:53:53;;;;;;;;;;;;;;;;;;5114144;28;1654;-39
2023/04/16 10:56:29;;;;;;;;;;;;;;;;;;5113959;28;2067;-39
2023/04/16 10:58:56;;;;;;;;;;;;;;;;;;5113990;28;1804;-48
2023/04/16 11:01:31;;;;;;;;;;;;;;;;;;5113597;28;2174;-40
2023/04/16 11:04:00;;;;;;;;;;;;;;;;;;5113774;28;1827;-40
2023/04/16 11:06:28;;;;;;;;;;;;;;;;;;5113876;28;2473;-39
2023/04/16 11:08:55;;;;;;;;;;;;;;;;;;5113788;28;2239;-41
2023/04/16 11:11:22;;;;;;;;;;;;;;;;;;5113757;28;1671;-40
2023/04/16 11:13:53;;;;;;;;;;;;;;;;;;5113623;28;2058;-41
2023/04/16 11:16:20;;;;;;;;;;;;;;;;;;5113538;28;2276;-40
2023/04/16 11:18:48;;;;;;;;;;;;;;;;;;5113750;28;1863;-38
2023/04/16 11:21:18;;;;;;;;;;;;;;;;;;5113818;28;1994;-39
2023/04/16 11:23:47;;;;;;;;;;;;;;;;;;5113759;28;1979;-40
2023/04/16 11:26:20;;;;;;;;;;;;;;;;;;5113418;28;1992;-40
2023/04/16 11:28:47;;;;;;;;;;;;;;;;;;5113645;28;1910;-41
2023/04/16 11:31:15;;;;;;;;;;;;;;;;;;5113348;28;1763;-52
2023/04/16 11:33:42;;;;;;;;;;;;;;;;;;5113433;28;2123;-44
2023/04/16 11:36:09;;;;;;;;;;;;;;;;;;5113059;28;1552;-48
2023/04/16 11:38:37;;;;;;;;;;;;;;;;;;5113087;28;1936;-57
2023/04/16 11:41:04;;;;;;;;;;;;;;;;;;5113127;28;1918;-50
2023/04/16 11:43:31;;;;;;;;;;;;;;;;;;5113204;28;1643;-41
2023/04/16 11:45:59;;;;;;;;;;;;;;;;;;5113146;28;2001;-39
2023/04/16 11:48:45;;;;;;;;;;;;;;;;;;5130514;27;1919;-39
2023/04/16 11:51:13;;;;;;;;;;;;;;;;;;5133214;27;1888;-39
2023/04/16 11:53:46;;;;;;;;;;;;;;;;;;5133489;27;1723;-43
2023/04/16 11:56:14;;;;;;;;;;;;;;;;;;5133172;27;2071;-39
2023/04/16 11:58:41;;;;;;;;;;;;;;;;;;5133502;27;2154;-39
2023/04/16 12:01:09;;;;;;;;;;;;;;;;;;5131637;27;1917;-39
2023/04/16 12:03:39;;;;;;;;;;;;;;;;;;5133457;27;1983;-40
2023/04/16 12:06:06;;;;;;;;;;;;;;;;;;5133273;27;1826;-39
2023/04/16 12:08:33;;;;;;;;;;;;;;;;;;5133075;27;1913;-39
2023/04/16 12:11:00;;;;;;;;;;;;;;;;;;5133370;27;1980;-39
2023/04/16 12:13:28;;;;;;;;;;;;;;;;;;5132913;27;1966;-38
2023/04/16 12:15:55;;;;;;;;;;;;;;;;;;5133258;27;1997;-39
2023/04/16 12:18:25;;;;;;;;;;;;;;;;;;5132887;27;1925;-39
2023/04/16 12:20:53;;;;;;;;;;;;;;;;;;5133177;27;1591;-39
2023/04/16 12:23:27;;;;;;;;;;;;;;;;;;5133164;27;2029;-39
2023/04/16 12:25:55;;;;;;;;;;;;;;;;;;5132858;27;1992;-39
2023/04/16 12:28:27;;;;;;;;;;;;;;;;;;5133020;27;2228;-39
2023/04/16 12:30:54;;;;;;;;;;;;;;;;;;5132688;27;1972;-39
2023/04/16 12:33:22;;;;;;;;;;;;;;;;;;5132926;27;2549;-40
2023/04/16 12:35:49;;;;;;;;;;;;;;;;;;5132893;27;1966;-38
2023/04/16 12:38:17;;;;;;;;;;;;;;;;;;5132811;27;1974;-39
2023/04/16 12:40:44;;;;;;;;;;;;;;;;;;5132687;27;1847;-38
2023/04/16 12:43:11;;;;;;;;;;;;;;;;;;5132299;27;1951;-44
2023/04/16 12:45:39;;;;;;;;;;;;;;;;;;5132624;27;1968;-40
2023/04/16 12:48:06;;;;;;;;;;;;;;;;;;5132349;27;1913;-38
2023/04/16 12:50:33;;;;;;;;;;;;;;;;;;5132549;27;1991;-39
2023/04/16 12:53:00;;;;;;;;;;;;;;;;;;5132501;27;1711;-39
2023/04/16 12:55:28;;;;;;;;;;;;;;;;;;5132344;27;1996;-38
2023/04/16 12:57:55;;;;;;;;;;;;;;;;;;5113806;27;2186;-38
2023/04/16 13:00:25;;;;;;;;;;;;;;;;;;5132657;27;2093;-39
2023/04/16 13:02:52;;;;;;;;;;;;;;;;;;5131627;27;1868;-39
2023/04/16 13:05:19;;;;;;;;;;;;;;;;;;5131479;27;1657;-39
2023/04/16 13:07:46;;;;;;;;;;;;;;;;;;5131302;27;1665;-39
2023/04/16 13:10:13;;;;;;;;;;;;;;;;;;5131229;27;2010;-39
2023/04/16 13:12:40;;;;;;;;;;;;;;;;;;5130751;27;1254;-39
2023/04/16 13:15:08;;;;;;;;;;;;;;;;;;5130652;27;1974;-39
2023/04/16 13:17:35;;;;;;;;;;;;;;;;;;5132239;27;1627;-41
2023/04/16 13:20:02;;;;;;;;;;;;;;;;;;5132201;28;2207;-39
2023/04/16 13:22:30;;;;;;;;;;;;;;;;;;5132278;28;1836;-40
2023/04/16 13:24:58;;;;;;;;;;;;;;;;;;5132077;28;1632;-38
2023/04/16 13:27:25;;;;;;;;;;;;;;;;;;5132218;28;2144;-39
2023/04/16 13:29:52;;;;;;;;;;;;;;;;;;5132278;28;1914;-38
2023/04/16 13:32:20;;;;;;;;;;;;;;;;;;5132087;28;1866;-39
2023/04/16 13:34:47;;;;;;;;;;;;;;;;;;5131808;28;1870;-38
2023/04/16 13:37:14;;;;;;;;;;;;;;;;;;5132036;28;1715;-39
2023/04/16 13:39:41;;;;;;;;;;;;;;;;;;5131891;28;1862;-40
2023/04/16 13:42:08;;;;;;;;;;;;;;;;;;5132079;28;1753;-38
2023/04/16 13:44:35;;;;;;;;;;;;;;;;;;5131923;28;2019;-39
2023/04/16 13:47:02;;;;;;;;;;;;;;;;;;5125866;28;1810;-40
2023/04/16 13:49:32;;;;;;;;;;;;;;;;;;5111360;28;1972;-55
2023/04/16 13:52:01;;;;;;;;;;;;;;;;;;5111156;28;1852;-46
2023/04/16 13:54:28;;;;;;;;;;;;;;;;;;5111309;28;2242;-39
2023/04/16 13:56:55;;;;;;;;;;;;;;;;;;5111238;28;2609;-44
2023/04/16 13:59:22;;;;;;;;;;;;;;;;;;5111392;28;1857;-39
2023/04/16 14:01:50;;;;;;;;;;;;;;;;;;5111212;28;1544;-39
2023/04/16 14:04:17;;;;;;;;;;;;;;;;;;5111113;28;2167;-39
2023/04/16 14:06:44;;;;;;;;;;;;;;;;;;5111306;28;1657;-50
2023/04/16 14:09:11;;;;;;;;;;;;;;;;;;5111206;28;1972;-45
2023/04/16 14:11:39;;;;;;;;;;;;;;;;;;5111145;28;2123;-43
2023/04/16 14:14:06;;;;;;;;;;;;;;;;;;5111021;28;1400;-44
2023/04/16 14:16:33;;;;;;;;;;;;;;;;;;5110960;28;1886;-42
2023/04/16 14:19:00;;;;;;;;;;;;;;;;;;5111036;28;2041;-48
2023/04/16 14:21:27;;;;;;;;;;;;;;;;;;5110100;28;2022;-39
2023/04/16 14:23:55;;;;;;;;;;;;;;;;;;5111168;28;2096;-38
2023/04/16 14:26:24;;;;;;;;;;;;;;;;;;5114776;28;1995;-39
2023/04/16 14:28:51;;;;;;;;;;;;;;;;;;5114627;28;2165;-42
2023/04/16 14:31:18;;;;;;;;;;;;;;;;;;5115028;28;2081;-39
2023/04/16 14:33:46;;;;;;;;;;;;;;;;;;5114510;28;1906;-39
2023/04/16 14:36:13;;;;;;;;;;;;;;;;;;5114179;28;1985;-40
2023/04/16 14:38:42;;;;;;;;;;;;;;;;;;5114654;28;1505;-39
2023/04/16 14:41:11;;;;;;;;;;;;;;;;;;5114449;28;1651;-38
2023/04/16 14:43:40;;;;;;;;;;;;;;;;;;5114278;28;1793;-39
2023/04/16 14:46:07;;;;;;;;;;;;;;;;;;5114142;28;1830;-39
2023/04/16 14:48:34;;;;;;;;;;;;;;;;;;5132811;27;1941;-45
2023/04/16 14:51:01;;;;;;;;;;;;;;;;;;5134886;27;2018;-39
2023/04/16 14:53:28;;;;;;;;;;;;;;;;;;5135025;27;1416;-39
2023/04/16 14:55:57;;;;;;;;;;;;;;;;;;5134287;27;1849;-42
2023/04/16 14:58:25;;;;;;;;;;;;;;;;;;5116263;27;2169;-40
2023/04/16 15:00:52;;;;;;;;;;;;;;;;;;5134470;27;1621;-40
2023/04/16 15:03:19;;;;;;;;;;;;;;;;;;5134587;27;1955;-39
2023/04/16 15:05:53;;;;;;;;;;;;;;;;;;5134589;27;2218;-39
2023/04/16 15:08:21;;;;;;;;;;;;;;;;;;5134293;27;2003;-38
2023/04/16 15:10:49;;;;;;;;;;;;;;;;;;5134443;27;2318;-40
2023/04/16 15:13:16;;;;;;;;;;;;;;;;;;5134787;27;1941;-39
2023/04/16 15:15:43;;;;;;;;;;;;;;;;;;5134699;27;1499;-38
2023/04/16 15:18:10;;;;;;;;;;;;;;;;;;5134237;27;1670;-39
2023/04/16 15:20:38;;;;;;;;;;;;;;;;;;5134218;27;1802;-39
2023/04/16 15:23:05;;;;;;;;;;;;;;;;;;5134308;27;2056;-36
2023/04/16 15:25:36;;;;;;;;;;;;;;;;;;5134143;27;2181;-39
2023/04/16 15:28:05;;;;;;;;;;;;;;;;;;5134201;27;1697;-38
2023/04/16 15:30:32;;;;;;;;;;;;;;;;;;5117651;27;1954;-38
2023/04/16 15:32:59;;;;;;;;;;;;;;;;;;5113731;28;2171;-39
2023/04/16 15:35:26;;;;;;;;;;;;;;;;;;5113113;28;1850;-39
2023/04/16 15:37:54;;;;;;;;;;;;;;;;;;5113232;28;1527;-38
2023/04/16 15:40:21;;;;;;;;;;;;;;;;;;5112892;28;1737;-39
2023/04/16 15:42:48;;;;;;;;;;;;;;;;;;5113191;28;1741;-39
2023/04/16 15:45:15;;;;;;;;;;;;;;;;;;5113176;28;1884;-38
2023/04/16 15:47:46;;;;;;;;;;;;;;;;;;5113299;28;2124;-38
2023/04/16 15:50:14;;;;;;;;;;;;;;;;;;5113044;28;1898;-38
2023/04/16 15:52:41;;;;;;;;;;;;;;;;;;5113050;28;2387;-39
2023/04/16 15:55:08;;;;;;;;;;;;;;;;;;5112963;28;2279;-38
2023/04/16 15:57:36;;;;;;;;;;;;;;;;;;5111579;28;1849;-39
2023/04/16 16:00:11;;;;;;;;;;;;;;;;;;5112934;28;2160;-39
2023/04/16 16:02:40;;;;;;;;;;;;;;;;;;5112794;28;1816;-38
2023/04/16 16:05:12;;;;;;;;;;;;;;;;;;5112789;28;1827;-39
2023/04/16 16:07:39;;;;;;;;;;;;;;;;;;5112540;28;1598;-39
2023/04/16 16:10:07;;;;;;;;;;;;;;;;;;5112379;28;1914;-39
2023/04/16 16:12:34;;;;;;;;;;;;;;;;;;5111545;28;2022;-40
2023/04/16 16:15:02;;;;;;;;;;;;;;;;;;5112778;28;2027;-38
2023/04/16 16:17:30;;;;;;;;;;;;;;;;;;5112448;28;2082;-36
2023/04/16 16:20:00;;;;;;;;;;;;;;;;;;5112073;28;1716;-39
2023/04/16 16:22:28;;;;;;;;;;;;;;;;;;5112429;28;2014;-36
2023/04/16 16:24:57;;;;;;;;;;;;;;;;;;5112403;28;2084;-36
2023/04/16 16:27:28;;;;;;;;;;;;;;;;;;5111946;28;1865;-36
2023/04/16 16:29:59;;;;;;;;;;;;;;;;;;5122227;27;1976;-36
2023/04/16 16:32:30;;;;;;;;;;;;;;;;;;5132386;27;1484;-36
2023/04/16 16:34:58;;;;;;;;;;;;;;;;;;5132573;27;1695;-36
2023/04/16 16:37:27;;;;;;;;;;;;;;;;;;5132466;27;1410;-38
2023/04/16 16:39:54;;;;;;;;;;;;;;;;;;5132663;27;1752;-39
2023/04/16 16:42:21;;;;;;;;;;;;;;;;;;5132787;27;2220;-38
2023/04/16 16:44:49;;;;;;;;;;;;;;;;;;5132392;27;1828;-39
2023/04/16 16:47:16;;;;;;;;;;;;;;;;;;5124693;27;1862;-39
2023/04/16 16:49:43;;;;;;;;;;;;;;;;;;5111938;28;2136;-45
2023/04/16 16:52:10;;;;;;;;;;;;;;;;;;5111872;28;1695;-39
2023/04/16 16:54:38;;;;;;;;;;;;;;;;;;5093867;28;2107;-39
2023/04/16 16:57:05;;;;;;;;;;;;;;;;;;5111843;28;1635;-38
2023/04/16 16:59:32;;;;;;;;;;;;;;;;;;5111344;28;1725;-38
2023/04/16 17:01:59;;;;;;;;;;;;;;;;;;5111775;28;2034;-39
2023/04/16 17:04:26;;;;;;;;;;;;;;;;;;5111907;28;2061;-38
2023/04/16 17:06:53;;;;;;;;;;;;;;;;;;5111841;28;1817;-37
2023/04/16 17:09:21;;;;;;;;;;;;;;;;;;5111790;28;1975;-38